createdAt,value
2022-09-06T00:02:21.300Z,102623.84
2022-09-06T00:04:49.443Z,102629.72
2022-09-06T00:07:17.377Z,102649.34
2022-09-06T00:09:46.725Z,102650.06
2022-09-06T00:12:14.580Z,102644.53
2022-09-06T00:14:42.534Z,102632.53
2022-09-06T00:17:10.601Z,102647.53
2022-09-06T00:19:38.480Z,102642.72
2022-09-06T00:22:06.547Z,102589.94
2022-09-06T00:24:34.396Z,102621.03
2022-09-06T00:27:03.697Z,102640.72
2022-09-06T00:29:31.753Z,102629.69
2022-09-06T00:32:00.460Z,102650.41
2022-09-06T00:34:29.129Z,102646.78
2022-09-06T00:36:57.176Z,102646.78
2022-09-06T00:39:25.201Z,102636.13
2022-09-06T00:41:53.194Z,102646.41
2022-09-06T00:44:22.785Z,102641.78
2022-09-06T00:46:53.058Z,102636.38
2022-09-06T00:49:25.755Z,102628.13
2022-09-06T00:51:56.919Z,102639.63
2022-09-06T00:54:25.141Z,102591.78
2022-09-06T00:56:53.110Z,102636.19
2022-09-06T00:59:23.190Z,102629.22
2022-09-06T01:01:51.367Z,102606.44
2022-09-06T01:04:19.698Z,102594.59
2022-09-06T01:06:58.121Z,102627.94
2022-09-06T01:09:37.639Z,102625.97
2022-09-06T01:12:18.903Z,102602.44
2022-09-06T01:15:06.191Z,102617.00
2022-09-06T01:17:45.610Z,102597.94
2022-09-06T01:20:32.561Z,102613.22
2022-09-06T01:23:29.612Z,102620.25
2022-09-06T01:26:11.638Z,102608.41
2022-09-06T01:28:43.920Z,102614.72
2022-09-06T01:31:26.000Z,102610.31
2022-09-06T01:34:12.288Z,102618.97
2022-09-06T01:37:08.585Z,102564.81
2022-09-06T01:39:36.697Z,102559.13
2022-09-06T01:42:09.172Z,102614.25
2022-09-06T01:44:40.381Z,102587.03
2022-09-06T01:47:17.302Z,102593.47
2022-09-06T01:49:55.154Z,102604.22
2022-09-06T01:52:33.584Z,102605.66
2022-09-06T01:55:18.554Z,102610.78
2022-09-06T01:58:08.439Z,102605.56
2022-09-06T02:00:48.160Z,102607.25
2022-09-06T02:03:24.487Z,102606.47
2022-09-06T02:05:55.408Z,102606.34
2022-09-06T02:08:28.879Z,102582.03
2022-09-06T02:11:00.813Z,102569.91
2022-09-06T02:13:34.465Z,102597.31
2022-09-06T02:16:05.696Z,102607.59
2022-09-06T02:18:39.522Z,102509.56
2022-09-06T02:21:10.209Z,102602.38
2022-09-06T02:23:41.550Z,102602.16
2022-09-06T02:26:14.360Z,102595.84
2022-09-06T02:28:42.655Z,102602.78
2022-09-06T02:31:17.809Z,102600.06
2022-09-06T02:33:47.379Z,102539.69
2022-09-06T02:36:15.922Z,102528.66
2022-09-06T02:38:45.661Z,102595.66
2022-09-06T02:41:14.984Z,102590.31
2022-09-06T02:43:43.916Z,102584.09
2022-09-06T02:46:13.836Z,102587.59
2022-09-06T02:48:42.137Z,102583.91
2022-09-06T02:51:10.782Z,102586.41
2022-09-06T02:53:38.908Z,102590.84
2022-09-06T02:56:07.274Z,102592.56
2022-09-06T02:58:35.556Z,102580.38
2022-09-06T03:01:04.081Z,102482.63
2022-09-06T03:03:33.577Z,102581.38
2022-09-06T03:06:01.509Z,102575.13
2022-09-06T03:08:33.609Z,102574.13
2022-09-06T03:11:02.148Z,102533.66
2022-09-06T03:13:30.789Z,102566.91
2022-09-06T03:16:00.343Z,102559.88
2022-09-06T03:18:31.033Z,102537.19
2022-09-06T03:21:00.461Z,102551.84
2022-09-06T03:23:30.215Z,102491.66
2022-09-06T03:25:58.529Z,102555.34
2022-09-06T03:28:27.046Z,102559.06
2022-09-06T03:30:55.360Z,102555.75
2022-09-06T03:33:23.945Z,102554.03
2022-09-06T03:35:53.918Z,102554.03
2022-09-06T03:38:24.923Z,102550.50
2022-09-06T03:40:53.350Z,102492.28
2022-09-06T03:43:23.189Z,102547.78
2022-09-06T03:45:53.196Z,102456.59
2022-09-06T03:48:23.390Z,102548.78
2022-09-06T03:50:55.747Z,102533.19
2022-09-06T03:53:27.272Z,102539.44
2022-09-06T03:55:57.762Z,102538.53
2022-09-06T03:58:30.046Z,102484.59
2022-09-06T04:01:04.573Z,102539.53
2022-09-06T04:03:33.147Z,102543.03
2022-09-06T04:06:01.057Z,102466.53
2022-09-06T04:08:30.777Z,102514.69
2022-09-06T04:10:59.536Z,102533.97
2022-09-06T04:13:28.762Z,102532.44
2022-09-06T04:15:57.005Z,102528.00
2022-09-06T04:18:25.058Z,102526.41
2022-09-06T04:20:55.964Z,102526.41
2022-09-06T04:23:24.973Z,102522.97
2022-09-06T04:25:56.692Z,102528.38
2022-09-06T04:28:26.796Z,102523.44
2022-09-06T04:30:55.943Z,102497.91
2022-09-06T04:33:26.210Z,102528.41
2022-09-06T04:35:55.001Z,102525.00
2022-09-06T04:38:23.049Z,102516.53
2022-09-06T04:40:51.280Z,102511.66
2022-09-06T04:43:20.793Z,102506.78
2022-09-06T04:45:48.832Z,102432.56
2022-09-06T04:48:17.274Z,102489.91
2022-09-06T04:50:45.373Z,102499.03
2022-09-06T04:53:13.260Z,102498.75
2022-09-06T04:55:41.329Z,102506.06
2022-09-06T04:58:09.430Z,102497.66
2022-09-06T05:00:39.000Z,102450.50
2022-09-06T05:03:06.998Z,102486.78
2022-09-06T05:05:35.030Z,102483.53
2022-09-06T05:08:03.129Z,102418.47
2022-09-06T05:10:31.072Z,102491.81
2022-09-06T05:12:59.021Z,102489.38
2022-09-06T05:15:26.965Z,102493.88
2022-09-06T05:18:03.933Z,102489.00
2022-09-06T05:20:32.328Z,102453.06
2022-09-06T05:23:01.645Z,102448.81
2022-09-06T05:25:29.676Z,102480.28
2022-09-06T05:27:57.590Z,102485.22
2022-09-06T05:30:25.557Z,102485.59
2022-09-06T05:32:53.489Z,102484.31
2022-09-06T05:35:22.751Z,102453.22
2022-09-06T05:37:50.692Z,102455.63
2022-09-06T05:40:18.753Z,102466.94
2022-09-06T05:42:46.685Z,102485.63
2022-09-06T05:45:14.747Z,102478.38
2022-09-06T05:47:42.757Z,102485.31
2022-09-06T05:50:11.381Z,102469.13
2022-09-06T05:52:40.816Z,102475.78
2022-09-06T05:55:09.951Z,102488.16
2022-09-06T05:57:37.833Z,102475.69
2022-09-06T06:00:06.842Z,102477.78
2022-09-06T06:02:34.842Z,102457.19
2022-09-06T06:05:03.385Z,102441.34
2022-09-06T06:07:31.412Z,102468.09
2022-09-06T06:10:00.844Z,102468.38
2022-09-06T06:12:28.785Z,102466.03
2022-09-06T06:14:56.845Z,102475.13
2022-09-06T06:17:24.999Z,102463.16
2022-09-06T06:19:53.587Z,102463.59
2022-09-06T06:22:21.620Z,102460.41
2022-09-06T06:24:49.685Z,102456.34
2022-09-06T06:27:21.658Z,102365.84
2022-09-06T06:29:50.740Z,102439.44
2022-09-06T06:32:18.596Z,102445.06
2022-09-06T06:34:46.458Z,102442.84
2022-09-06T06:37:14.487Z,102445.06
2022-09-06T06:39:42.401Z,102443.78
2022-09-06T06:42:10.474Z,102440.56
2022-09-06T06:44:39.861Z,102434.06
2022-09-06T06:47:07.909Z,102423.84
2022-09-06T06:49:35.789Z,102430.84
2022-09-06T06:52:04.356Z,102427.75
2022-09-06T06:54:32.222Z,102396.38
2022-09-06T06:57:00.242Z,102388.00
2022-09-06T06:59:28.322Z,102427.59
2022-09-06T07:01:58.816Z,102428.34
2022-09-06T07:04:26.870Z,102428.22
2022-09-06T07:12:34.040Z,102408.94
2022-09-06T07:15:02.044Z,102403.16
2022-09-06T07:17:31.283Z,102401.69
2022-09-06T07:20:15.198Z,102375.28
2022-09-06T07:22:43.795Z,102410.31
2022-09-06T07:25:14.387Z,102401.94
2022-09-06T07:30:20.314Z,102379.59
2022-09-06T07:32:49.886Z,102397.28
2022-09-06T07:35:20.500Z,102380.91
2022-09-06T07:37:55.980Z,102389.66
2022-09-06T07:40:24.573Z,102309.53
2022-09-06T07:42:52.552Z,102377.81
2022-09-06T07:45:20.845Z,102367.19
2022-09-06T07:50:47.406Z,102384.22
2022-09-06T07:53:24.538Z,102364.75
2022-09-06T07:55:57.229Z,102363.91
2022-09-06T07:58:25.301Z,102364.84
2022-09-06T08:00:53.176Z,102362.25
2022-09-06T08:03:22.767Z,102356.91
2022-09-06T08:11:29.814Z,102355.19
2022-09-06T08:14:00.060Z,102341.50
2022-09-06T08:16:29.687Z,102330.16
2022-09-06T08:19:01.293Z,102336.09
2022-09-06T08:21:32.235Z,102307.81
2022-09-06T08:24:01.907Z,102316.97
2022-09-06T08:26:31.174Z,102323.97
2022-09-06T08:29:01.398Z,102326.88
2022-09-06T08:31:31.139Z,102316.22
2022-09-06T08:34:01.929Z,102282.06
2022-09-06T08:36:31.570Z,102311.16
2022-09-06T08:38:59.991Z,102305.88
2022-09-06T08:41:32.271Z,102297.28
2022-09-06T08:46:59.220Z,102301.69
2022-09-06T08:49:31.634Z,102251.50
2022-09-06T08:52:20.304Z,102288.38
2022-09-06T08:54:55.180Z,102286.06
2022-09-06T08:57:40.272Z,102268.59
2022-09-06T09:00:11.913Z,102225.03
2022-09-06T09:02:46.109Z,102245.66
2022-09-06T09:05:25.629Z,102271.63
2022-09-06T09:08:07.605Z,102258.28
2022-09-06T09:10:42.569Z,102264.69
2022-09-06T09:13:21.380Z,102259.41
2022-09-06T09:15:49.361Z,102248.72
2022-09-06T09:18:23.931Z,102238.34
2022-09-06T09:20:53.745Z,102248.59
2022-09-06T09:23:21.614Z,102234.06
2022-09-06T09:25:52.893Z,102244.41
2022-09-06T09:28:23.832Z,102241.06
2022-09-06T09:30:53.202Z,102230.34
2022-09-06T09:33:28.102Z,102229.47
2022-09-06T09:35:59.484Z,102078.19
2022-09-06T09:38:29.075Z,102208.47
2022-09-06T09:40:59.513Z,102217.47
2022-09-06T09:43:31.344Z,102222.72
2022-09-06T09:46:16.276Z,102214.47
2022-09-06T09:49:00.234Z,102151.16
2022-09-06T09:51:30.924Z,102218.28
2022-09-06T09:54:00.183Z,102205.06
2022-09-06T09:56:37.698Z,102201.50
2022-09-06T09:59:16.618Z,102189.09
2022-09-06T10:01:45.072Z,102183.00
2022-09-06T10:07:13.244Z,102102.78
2022-09-06T10:09:43.932Z,102175.75
2022-09-06T10:12:18.718Z,102173.06
2022-09-06T10:14:49.232Z,102166.06
2022-09-06T10:17:23.461Z,102146.47
2022-09-06T10:19:51.515Z,102159.84
2022-09-06T10:22:31.449Z,102158.97
2022-09-06T10:25:18.379Z,102160.75
2022-09-06T10:28:15.952Z,102148.25
2022-09-06T10:30:55.102Z,102128.59
2022-09-06T10:33:33.514Z,102160.75
2022-09-06T10:36:04.601Z,102088.59
2022-09-06T10:38:49.625Z,102134.84
2022-09-06T10:41:33.281Z,102133.06
2022-09-06T10:44:18.368Z,102125.97
2022-09-06T10:46:47.042Z,102153.56
2022-09-06T10:49:19.181Z,102129.50
2022-09-06T10:51:51.940Z,102111.56
2022-09-06T10:54:23.474Z,102142.78
2022-09-06T10:56:57.206Z,102147.38
2022-09-06T10:59:38.199Z,102120.59
2022-09-06T11:02:16.363Z,102143.78
2022-09-06T11:07:42.059Z,102139.34
2022-09-06T11:10:19.820Z,102135.78
2022-09-06T11:12:55.472Z,102138.41
2022-09-06T11:15:26.561Z,102129.50
2022-09-06T11:18:02.429Z,102107.84
2022-09-06T11:20:37.073Z,102118.81
2022-09-06T11:23:41.703Z,102122.97
2022-09-06T11:26:28.869Z,102103.69
2022-09-06T11:28:59.333Z,102083.94
2022-09-06T11:34:26.599Z,102064.06
2022-09-06T11:36:57.406Z,102053.34
2022-09-06T11:43:03.194Z,102075.78
2022-09-06T11:45:43.906Z,102091.91
2022-09-06T11:48:35.230Z,102073.88
2022-09-06T11:51:07.863Z,102067.53
2022-09-06T11:53:57.800Z,102059.44
2022-09-06T11:56:32.163Z,102077.25
2022-09-06T11:59:07.806Z,102017.75
2022-09-06T12:01:41.110Z,102065.31
2022-09-06T12:04:12.194Z,102061.06
2022-09-06T12:06:43.142Z,102011.09
2022-09-06T12:09:31.710Z,102001.91
2022-09-06T12:12:00.481Z,101998.34
2022-09-06T12:14:33.282Z,102015.44
2022-09-06T12:17:28.812Z,102049.69
2022-09-06T12:20:07.240Z,102037.47
2022-09-06T12:22:59.149Z,102030.13
2022-09-06T12:25:53.073Z,102028.31
2022-09-06T12:28:32.790Z,102022.13
2022-09-06T12:31:02.888Z,102032.81
2022-09-06T12:33:33.628Z,102008.16
2022-09-06T12:36:15.094Z,102019.22
2022-09-06T12:38:55.817Z,101982.41
2022-09-06T12:41:25.238Z,102012.53
2022-09-06T12:43:55.823Z,102006.47
2022-09-06T12:46:26.942Z,101994.38
2022-09-06T12:49:06.938Z,101994.53
2022-09-06T12:51:36.302Z,101980.91
2022-09-06T12:54:06.941Z,101967.66
2022-09-06T12:56:35.807Z,101988.84
2022-09-06T12:59:17.143Z,101968.16
2022-09-06T13:01:57.034Z,101973.50
2022-09-06T13:04:33.825Z,101973.88
2022-09-06T13:07:04.525Z,101979.19
2022-09-06T13:09:33.328Z,101979.47
2022-09-06T13:12:07.052Z,101969.91
2022-09-06T13:14:36.217Z,101973.69
2022-09-06T13:17:05.621Z,101968.97
2022-09-06T13:19:35.893Z,101958.66
2022-09-06T13:22:07.525Z,101969.34
2022-09-06T13:24:47.440Z,101849.41
2022-09-06T13:27:27.165Z,101949.19
2022-09-06T13:29:59.506Z,101921.47
2022-09-06T13:32:32.415Z,101941.53
2022-09-06T13:35:01.272Z,101919.91
2022-09-06T13:37:31.568Z,101951.03
2022-09-06T13:39:59.936Z,101895.88
2022-09-06T13:42:30.314Z,101962.03
2022-09-06T13:45:02.000Z,101936.81
2022-09-06T13:47:31.789Z,101950.66
2022-09-06T13:50:00.409Z,101942.16
2022-09-06T13:52:28.373Z,101941.03
2022-09-06T13:54:56.460Z,101934.00
2022-09-06T13:57:24.842Z,101947.63
2022-09-06T13:59:52.771Z,101934.72
2022-09-06T14:02:21.149Z,101934.66
2022-09-06T14:04:50.828Z,101936.19
2022-09-06T14:07:18.684Z,101929.47
2022-09-06T14:09:47.706Z,101946.38
2022-09-06T14:12:15.643Z,101914.81
2022-09-06T14:14:44.637Z,101941.13
2022-09-06T14:17:12.676Z,101938.13
2022-09-06T14:19:41.461Z,101933.16
2022-09-06T14:22:10.722Z,101930.69
2022-09-06T14:24:38.804Z,101925.53
2022-09-06T14:27:07.248Z,101930.56
2022-09-06T14:29:35.746Z,101929.06
2022-09-06T14:32:04.611Z,101863.97
2022-09-06T14:34:32.730Z,101914.56
2022-09-06T14:37:00.601Z,101921.44
2022-09-06T14:39:30.173Z,101912.81
2022-09-06T14:41:58.068Z,101914.44
2022-09-06T14:44:26.060Z,101910.75
2022-09-06T14:46:54.864Z,101909.75
2022-09-06T14:49:22.825Z,101905.81
2022-09-06T14:51:50.709Z,101895.06
2022-09-06T14:54:20.309Z,101899.25
2022-09-06T14:56:50.376Z,101903.66
2022-09-06T14:59:18.409Z,101881.69
2022-09-06T15:01:46.590Z,101889.38
2022-09-06T15:04:14.550Z,101891.22
2022-09-06T15:06:47.094Z,101888.38
2022-09-06T15:09:15.667Z,101885.97
2022-09-06T15:11:45.775Z,101885.94
2022-09-06T15:14:17.122Z,101883.88
2022-09-06T15:16:45.779Z,101878.25
2022-09-06T15:19:13.908Z,101889.91
2022-09-06T15:21:42.216Z,101886.81
2022-09-06T15:24:12.255Z,101879.56
2022-09-06T15:26:41.130Z,101874.97
2022-09-06T15:29:09.929Z,101883.66
2022-09-06T15:31:40.073Z,101875.75
2022-09-06T15:34:09.039Z,101873.66
2022-09-06T15:36:37.656Z,101878.63
2022-09-06T15:39:06.706Z,101869.28
2022-09-06T15:41:37.163Z,101867.91
2022-09-06T15:44:09.798Z,101863.03
2022-09-06T15:46:50.620Z,101870.44
2022-09-06T15:49:24.377Z,101870.97
2022-09-06T15:51:56.221Z,101871.34
2022-09-06T15:54:45.341Z,101853.72
2022-09-06T15:57:13.657Z,101866.25
2022-09-06T15:59:42.017Z,101859.31
2022-09-06T16:02:12.026Z,101869.22
2022-09-06T16:04:40.316Z,101847.09
2022-09-06T16:07:09.796Z,101850.75
2022-09-06T16:09:37.735Z,101844.53
2022-09-06T16:12:05.955Z,101847.16
2022-09-06T16:14:34.904Z,101847.19
2022-09-06T16:17:02.969Z,101841.03
2022-09-06T16:19:32.360Z,101843.72
2022-09-06T16:22:01.047Z,101841.97
2022-09-06T16:24:29.312Z,101845.56
2022-09-06T16:26:57.307Z,101845.59
2022-09-06T16:29:25.350Z,101810.91
2022-09-06T16:31:59.720Z,101818.91
2022-09-06T16:34:27.992Z,101826.00
2022-09-06T16:36:57.284Z,101841.09
2022-09-06T16:39:25.448Z,101833.09
2022-09-06T16:41:53.614Z,101845.53
2022-09-06T16:44:21.609Z,101806.41
2022-09-06T16:46:51.390Z,101830.41
2022-09-06T16:49:19.809Z,101834.84
2022-09-06T16:51:48.394Z,101839.25
2022-09-06T16:54:19.111Z,101841.88
2022-09-06T16:56:47.341Z,101830.28
2022-09-06T16:59:17.362Z,101795.53
2022-09-06T17:01:45.906Z,101822.19
2022-09-06T17:04:14.355Z,101824.84
2022-09-06T17:06:45.741Z,101825.72
2022-09-06T17:09:15.713Z,101828.34
2022-09-06T17:11:45.193Z,101826.53
2022-09-06T17:14:13.137Z,101822.91
2022-09-06T17:16:58.547Z,101816.66
2022-09-06T17:19:26.854Z,101832.63
2022-09-06T17:21:54.945Z,101820.19
2022-09-06T17:24:23.105Z,101776.47
2022-09-06T17:26:52.490Z,101819.22
2022-09-06T17:29:20.545Z,101816.47
2022-09-06T17:31:50.252Z,101819.97
2022-09-06T17:34:18.356Z,101822.59
2022-09-06T17:36:46.352Z,101823.44
2022-09-06T17:39:17.704Z,101811.84
2022-09-06T17:41:47.337Z,101725.31
2022-09-06T17:44:20.060Z,101813.47
2022-09-06T17:47:09.087Z,101809.88
2022-09-06T17:49:37.034Z,101743.91
2022-09-06T17:52:05.131Z,101819.53
2022-09-06T17:54:33.522Z,101811.50
2022-09-06T17:57:01.545Z,101814.97
2022-09-06T17:59:35.037Z,101820.22
2022-09-06T18:02:03.605Z,101811.31
2022-09-06T18:04:31.646Z,101820.09
2022-09-06T18:06:59.544Z,101820.00
2022-09-06T18:09:27.715Z,101820.84
2022-09-06T18:11:56.170Z,101822.50
2022-09-06T18:14:24.017Z,101829.53
2022-09-06T18:16:53.889Z,101825.09
2022-09-06T18:19:23.228Z,101822.34
2022-09-06T18:21:51.901Z,101832.06
2022-09-06T18:24:20.130Z,101830.28
2022-09-06T18:26:49.177Z,101836.44
2022-09-06T18:29:18.530Z,101839.09
2022-09-06T18:31:46.530Z,101832.88
2022-09-06T18:34:16.723Z,101826.56
2022-09-06T18:36:44.619Z,101810.56
2022-09-06T18:39:13.323Z,101832.75
2022-09-06T18:41:58.469Z,101813.13
2022-09-06T18:44:31.418Z,101839.75
2022-09-06T18:47:01.569Z,101842.41
2022-09-06T18:49:32.637Z,101845.00
2022-09-06T18:52:00.978Z,101840.47
2022-09-06T18:54:29.001Z,101833.31
2022-09-06T18:56:56.968Z,101800.28
2022-09-06T18:59:25.249Z,101835.94
2022-09-06T19:01:53.233Z,101841.22
2022-09-06T19:04:21.552Z,101751.94
2022-09-06T19:06:50.856Z,101853.50
2022-09-06T19:09:19.112Z,101824.69
2022-09-06T19:11:51.697Z,101836.94
2022-09-06T19:14:19.966Z,101860.81
2022-09-06T19:16:50.149Z,101864.25
2022-09-06T19:19:18.515Z,101854.38
2022-09-06T19:21:46.436Z,101864.81
2022-09-06T19:24:16.295Z,101870.00
2022-09-06T19:26:45.235Z,101869.03
2022-09-06T19:29:15.699Z,101875.13
2022-09-06T19:31:44.244Z,101870.59
2022-09-06T19:34:13.739Z,101867.81
2022-09-06T19:36:42.068Z,101811.47
2022-09-06T19:39:13.257Z,101872.03
2022-09-06T19:41:45.343Z,101866.66
2022-09-06T19:44:14.793Z,101867.44
2022-09-06T19:46:46.002Z,101860.19
2022-09-06T19:49:15.252Z,101859.19
2022-09-06T19:51:45.352Z,101864.38
2022-09-06T19:54:15.609Z,101843.66
2022-09-06T19:56:46.188Z,101816.75
2022-09-06T19:59:15.316Z,101872.84
2022-09-06T20:01:45.288Z,101865.53
2022-09-06T20:04:14.974Z,101865.47
2022-09-06T20:06:43.225Z,101862.72
2022-09-06T20:09:12.289Z,101861.75
2022-09-06T20:11:41.756Z,101864.31
2022-09-06T20:14:11.885Z,101848.13
2022-09-06T20:16:42.036Z,101848.06
2022-09-06T20:19:12.112Z,101840.78
2022-09-06T20:21:40.136Z,101804.00
2022-09-06T20:24:08.317Z,101846.75
2022-09-06T20:26:36.289Z,101844.00
2022-09-06T20:29:06.731Z,101858.09
2022-09-06T20:31:37.617Z,101827.72
2022-09-06T20:34:06.888Z,101837.47
2022-09-06T20:36:34.907Z,101849.69
2022-09-06T20:39:03.583Z,101842.53
2022-09-06T20:41:31.554Z,101843.28
2022-09-06T20:44:00.991Z,101836.84
2022-09-06T20:46:31.129Z,101851.06
2022-09-06T20:49:04.398Z,101860.69
2022-09-06T20:51:34.306Z,101844.63
2022-09-06T20:54:03.611Z,101867.66
2022-09-06T20:56:34.358Z,101856.94
2022-09-06T20:59:04.221Z,101860.16
2022-09-06T21:01:34.808Z,101863.41
2022-09-06T21:04:07.219Z,101864.84
2022-09-06T21:06:36.770Z,101859.25
2022-09-06T21:09:05.312Z,101875.06
2022-09-06T21:11:33.409Z,101875.00
2022-09-06T21:14:01.446Z,101881.97
2022-09-06T21:16:30.273Z,101876.53
2022-09-06T21:18:59.693Z,101877.09
2022-09-06T21:21:30.335Z,101850.88
2022-09-06T21:23:58.257Z,101882.00
2022-09-06T21:26:26.620Z,101872.13
2022-09-06T21:28:55.115Z,101856.91
2022-09-06T21:31:24.399Z,101883.69
2022-09-06T21:33:53.821Z,101890.66
2022-09-06T21:36:23.246Z,101889.66
2022-09-06T21:38:55.604Z,101900.94
2022-09-06T21:41:24.589Z,101892.00
2022-09-06T21:43:53.701Z,101861.63
2022-09-06T21:46:25.291Z,101874.16
2022-09-06T21:48:56.095Z,101876.03
2022-09-06T21:51:27.358Z,101876.84
2022-09-06T21:53:58.027Z,101872.38
2022-09-06T21:56:26.602Z,101824.91
2022-09-06T21:58:56.513Z,101864.22
2022-09-06T22:01:25.130Z,101870.44
2022-09-06T22:03:53.150Z,101878.31
2022-09-06T22:06:22.788Z,101875.47
2022-09-06T22:08:51.076Z,101863.06
2022-09-06T22:11:23.393Z,101874.69
2022-09-06T22:13:51.971Z,101866.47
2022-09-06T22:16:22.476Z,101880.66
2022-09-06T22:18:51.650Z,101811.72
2022-09-06T22:21:21.243Z,101871.38
2022-09-06T22:23:53.020Z,101863.56
2022-09-06T22:26:22.937Z,101866.00
2022-09-06T22:28:55.347Z,101822.03
2022-09-06T22:31:23.479Z,101849.56
2022-09-06T22:33:51.588Z,101886.25
2022-09-06T22:36:19.898Z,101878.03
2022-09-06T22:38:48.383Z,101853.94
2022-09-06T22:41:16.292Z,101888.72
2022-09-06T22:43:45.733Z,101871.72
2022-09-06T22:46:13.888Z,101895.41
2022-09-06T22:48:41.848Z,101893.47
2022-09-06T22:51:10.421Z,101886.28
2022-09-06T22:53:38.386Z,101739.50
2022-09-06T22:56:06.534Z,101876.44
2022-09-06T22:58:35.493Z,101882.47
2022-09-06T23:01:11.219Z,101882.25
2022-09-06T23:03:39.783Z,101886.56
2022-09-06T23:06:08.137Z,101881.22
2022-09-06T23:08:37.186Z,101867.78
2022-09-06T23:11:08.042Z,101885.97
2022-09-06T23:13:36.186Z,101884.97
2022-09-06T23:16:05.969Z,101881.22
2022-09-06T23:18:35.807Z,101889.13
2022-09-06T23:21:08.121Z,101895.09
2022-09-06T23:23:39.195Z,101892.16
2022-09-06T23:26:08.136Z,101890.25
2022-09-06T23:28:36.902Z,101893.78
2022-09-06T23:31:06.294Z,101843.75
2022-09-06T23:33:37.469Z,101843.63
2022-09-06T23:36:06.309Z,101863.34
2022-09-06T23:38:34.782Z,101859.41
2022-09-06T23:41:03.334Z,101880.19
2022-09-06T23:43:31.550Z,101879.41
2022-09-06T23:45:59.630Z,101874.19
2022-09-06T23:48:27.997Z,101882.97
2022-09-06T23:50:57.269Z,101882.97
2022-09-06T23:53:25.261Z,101884.72
2022-09-06T23:55:53.174Z,101889.88
2022-09-06T23:58:21.414Z,101877.22
